createdAt,value
2023-05-16T00:01:37.907Z,76.37
2023-05-16T00:04:06.735Z,77.42
2023-05-16T00:06:36.590Z,77.29
2023-05-16T00:09:04.869Z,75.46
2023-05-16T00:15:36.006Z,74.82
2023-05-16T00:18:04.088Z,76.11
2023-05-16T00:20:32.192Z,77.34
2023-05-16T00:23:01.958Z,75.44
2023-05-16T00:25:29.997Z,77.06
2023-05-16T00:27:58.458Z,78.02
2023-05-16T00:30:26.560Z,79.55
2023-05-16T00:32:55.851Z,77.33
2023-05-16T00:35:24.961Z,77.55
2023-05-16T00:37:53.005Z,76.19
2023-05-16T00:40:24.540Z,75.91
2023-05-16T00:42:52.750Z,75.83
2023-05-16T00:45:20.940Z,76.90
2023-05-16T00:47:49.333Z,77.22
2023-05-16T00:50:18.123Z,76.05
2023-05-16T00:52:46.598Z,77.33
2023-05-16T00:55:15.798Z,75.69
2023-05-16T00:57:45.352Z,75.58
2023-05-16T01:00:16.002Z,74.59
2023-05-16T01:02:44.903Z,73.94
2023-05-16T01:05:13.215Z,74.11
2023-05-16T01:07:41.285Z,77.13
2023-05-16T01:10:10.641Z,78.17
2023-05-16T01:12:43.058Z,75.57
2023-05-16T01:15:15.185Z,75.73
2023-05-16T01:17:54.540Z,74.25
2023-05-16T01:20:34.820Z,74.87
2023-05-16T01:23:22.020Z,75.38
2023-05-16T01:25:59.286Z,75.86
2023-05-16T01:28:29.992Z,74.15
2023-05-16T01:30:58.107Z,74.96
2023-05-16T01:33:26.111Z,74.82
2023-05-16T01:36:00.859Z,74.05
2023-05-16T01:38:38.813Z,73.99
2023-05-16T01:41:14.257Z,73.45
2023-05-16T01:43:46.501Z,72.06
2023-05-16T01:46:17.715Z,72.44
2023-05-16T01:48:52.664Z,72.48
2023-05-16T01:51:24.164Z,72.25
2023-05-16T01:53:54.358Z,73.35
2023-05-16T01:56:23.007Z,73.75
2023-05-16T01:58:54.485Z,72.50
2023-05-16T02:01:22.577Z,74.49
2023-05-16T02:03:51.258Z,74.05
2023-05-16T02:06:19.312Z,74.17
2023-05-16T02:08:47.326Z,74.43
2023-05-16T02:11:18.874Z,73.67
2023-05-16T02:13:47.132Z,73.60
2023-05-16T02:16:16.700Z,72.43
2023-05-16T02:18:46.067Z,72.82
2023-05-16T02:21:14.199Z,73.32
2023-05-16T02:23:42.185Z,74.87
2023-05-16T02:26:10.233Z,75.04
2023-05-16T02:28:38.300Z,74.61
2023-05-16T02:31:06.538Z,73.36
2023-05-16T02:33:36.010Z,74.35
2023-05-16T02:36:04.394Z,74.97
2023-05-16T02:38:32.373Z,77.30
2023-05-16T02:41:00.424Z,78.06
2023-05-16T02:43:28.373Z,78.57
2023-05-16T02:45:56.516Z,77.91
2023-05-16T02:48:24.479Z,78.38
2023-05-16T02:50:53.872Z,78.13
2023-05-16T02:53:21.888Z,78.34
2023-05-16T02:55:49.882Z,81.16
2023-05-16T02:58:17.859Z,81.80
2023-05-16T03:00:46.009Z,81.48
2023-05-16T03:03:14.084Z,80.69
2023-05-16T03:05:42.417Z,79.64
2023-05-16T03:08:11.887Z,77.40
2023-05-16T03:10:39.859Z,75.78
2023-05-16T03:13:08.156Z,75.10
2023-05-16T03:15:36.160Z,73.43
2023-05-16T03:18:04.465Z,73.20
2023-05-16T03:20:32.558Z,73.72
2023-05-16T03:23:00.547Z,76.39
2023-05-16T03:25:29.982Z,77.01
2023-05-16T03:27:57.971Z,77.24
2023-05-16T03:30:26.362Z,78.03
2023-05-16T03:32:54.634Z,79.00
2023-05-16T03:35:22.842Z,76.64
2023-05-16T03:37:50.907Z,74.45
2023-05-16T03:40:19.987Z,73.33
2023-05-16T03:42:49.367Z,72.62
2023-05-16T03:45:17.560Z,71.24
2023-05-16T03:47:45.669Z,71.43
2023-05-16T03:50:13.697Z,71.92
2023-05-16T03:52:41.709Z,71.22
2023-05-16T03:55:09.936Z,71.81
2023-05-16T03:57:39.288Z,72.77
2023-05-16T04:00:11.162Z,71.39
2023-05-16T04:02:43.030Z,69.74
2023-05-16T04:05:12.543Z,69.31
2023-05-16T04:07:40.799Z,69.36
2023-05-16T04:10:10.394Z,69.61
2023-05-16T04:12:38.733Z,69.18
2023-05-16T04:15:09.293Z,68.04
2023-05-16T04:17:37.567Z,68.03
2023-05-16T04:20:07.113Z,67.48
2023-05-16T04:22:35.119Z,68.52
2023-05-16T04:25:03.380Z,70.49
2023-05-16T04:27:31.841Z,71.01
2023-05-16T04:30:00.473Z,70.96
2023-05-16T04:32:30.267Z,70.89
2023-05-16T04:34:58.335Z,69.14
2023-05-16T04:37:26.791Z,69.05
2023-05-16T04:39:55.417Z,67.54
2023-05-16T04:42:24.272Z,67.45
2023-05-16T04:45:05.006Z,66.42
2023-05-16T04:47:39.267Z,66.35
2023-05-16T04:50:09.802Z,66.21
2023-05-16T04:52:38.284Z,66.11
2023-05-16T04:55:07.231Z,66.33
2023-05-16T04:57:35.295Z,66.21
2023-05-16T05:00:07.101Z,65.87
2023-05-16T05:02:35.317Z,65.49
2023-05-16T05:05:12.606Z,66.05
2023-05-16T05:07:42.965Z,66.22
2023-05-16T05:10:12.278Z,65.26
2023-05-16T05:12:40.493Z,64.43
2023-05-16T05:15:09.316Z,66.11
2023-05-16T05:17:38.942Z,65.57
2023-05-16T05:20:10.626Z,65.55
2023-05-16T05:22:38.784Z,63.56
2023-05-16T05:25:07.770Z,64.37
2023-05-16T05:27:35.799Z,65.74
2023-05-16T05:30:03.959Z,64.02
2023-05-16T05:32:32.255Z,63.02
2023-05-16T05:35:00.349Z,62.35
2023-05-16T05:37:30.165Z,62.60
2023-05-16T05:39:58.173Z,62.49
2023-05-16T05:42:26.415Z,62.62
2023-05-16T05:44:55.129Z,62.64
2023-05-16T05:47:23.196Z,63.68
2023-05-16T05:49:51.833Z,63.72
2023-05-16T05:52:20.152Z,62.22
2023-05-16T05:54:50.333Z,61.44
2023-05-16T05:57:18.347Z,60.92
2023-05-16T05:59:46.968Z,61.20
2023-05-16T06:02:15.349Z,61.43
2023-05-16T06:04:43.417Z,60.73
2023-05-16T06:07:11.471Z,59.61
2023-05-16T06:09:39.543Z,60.99
2023-05-16T06:12:09.779Z,61.23
2023-05-16T06:14:37.917Z,60.44
2023-05-16T06:17:06.192Z,60.91
2023-05-16T06:19:34.304Z,59.71
2023-05-16T06:22:02.523Z,61.82
2023-05-16T06:24:30.745Z,62.54
2023-05-16T06:26:58.736Z,64.08
2023-05-16T06:29:28.169Z,61.45
2023-05-16T06:31:56.249Z,61.38
2023-05-16T06:34:28.173Z,61.37
2023-05-16T06:36:56.489Z,60.68
2023-05-16T06:39:24.533Z,63.00
2023-05-16T06:41:56.235Z,62.43
2023-05-16T06:44:25.054Z,64.01
2023-05-16T06:46:54.716Z,64.52
2023-05-16T06:49:22.831Z,64.14
2023-05-16T06:51:51.021Z,64.37
2023-05-16T06:54:19.161Z,62.02
2023-05-16T06:56:47.232Z,60.13
2023-05-16T06:59:15.278Z,62.33
2023-05-16T07:01:43.550Z,61.27
2023-05-16T07:04:13.304Z,61.16
2023-05-16T07:06:41.724Z,59.67
2023-05-16T07:09:09.814Z,60.11
2023-05-16T07:11:37.853Z,58.69
2023-05-16T07:14:05.932Z,59.82
2023-05-16T07:16:34.139Z,58.96
2023-05-16T07:19:02.289Z,57.99
2023-05-16T07:21:31.765Z,57.29
2023-05-16T07:23:59.887Z,56.44
2023-05-16T07:26:28.041Z,56.83
2023-05-16T07:28:56.119Z,58.30
2023-05-16T07:31:24.359Z,56.48
2023-05-16T07:33:52.572Z,57.29
2023-05-16T07:36:21.349Z,56.47
2023-05-16T07:38:50.931Z,57.83
2023-05-16T07:41:19.080Z,56.09
2023-05-16T07:43:47.166Z,58.73
2023-05-16T07:46:15.440Z,57.56
2023-05-16T07:48:43.915Z,57.63
2023-05-16T07:51:11.941Z,56.60
2023-05-16T07:53:39.998Z,57.25
2023-05-16T07:56:10.044Z,56.36
2023-05-16T07:58:40.024Z,54.83
2023-05-16T08:01:08.238Z,54.70
2023-05-16T08:03:37.302Z,53.30
2023-05-16T08:06:05.917Z,53.50
2023-05-16T08:08:34.124Z,53.80
2023-05-16T08:11:02.295Z,54.54
2023-05-16T08:13:31.839Z,53.56
2023-05-16T08:16:00.046Z,52.92
2023-05-16T08:18:28.178Z,53.90
2023-05-16T08:20:56.219Z,54.46
2023-05-16T08:23:24.340Z,55.20
2023-05-16T08:25:54.734Z,52.86
2023-05-16T08:28:22.936Z,52.42
2023-05-16T08:30:52.579Z,52.36
2023-05-16T08:33:20.779Z,51.25
2023-05-16T08:35:49.955Z,53.21
2023-05-16T08:38:18.094Z,53.97
2023-05-16T08:40:46.282Z,51.96
2023-05-16T08:43:14.984Z,51.22
2023-05-16T08:45:43.154Z,50.44
2023-05-16T08:48:12.836Z,52.12
2023-05-16T08:50:42.855Z,51.27
2023-05-16T08:53:13.163Z,50.77
2023-05-16T08:55:42.910Z,49.91
2023-05-16T08:58:12.130Z,49.98
2023-05-16T09:00:41.342Z,48.96
2023-05-16T09:03:09.528Z,49.51
2023-05-16T09:05:39.761Z,48.84
2023-05-16T09:08:07.900Z,48.94
2023-05-16T09:10:36.117Z,48.30
2023-05-16T09:13:04.473Z,47.39
2023-05-16T09:15:33.665Z,47.67
2023-05-16T09:18:02.746Z,46.56
2023-05-16T09:20:31.380Z,48.19
2023-05-16T09:23:01.525Z,47.26
2023-05-16T09:25:32.484Z,47.13
2023-05-16T09:28:03.129Z,46.58
2023-05-16T09:30:33.989Z,46.52
2023-05-16T09:33:02.940Z,46.48
2023-05-16T09:35:43.793Z,45.87
2023-05-16T09:38:17.260Z,45.54
2023-05-16T09:40:46.344Z,44.66
2023-05-16T09:43:17.692Z,44.13
2023-05-16T09:45:48.965Z,44.35
2023-05-16T09:48:18.341Z,43.26
2023-05-16T09:50:53.062Z,43.30
2023-05-16T09:53:28.761Z,43.61
2023-05-16T09:56:07.960Z,44.37
2023-05-16T09:58:38.389Z,44.00
2023-05-16T10:01:07.887Z,44.66
2023-05-16T10:03:37.348Z,45.23
2023-05-16T10:06:06.855Z,46.59
2023-05-16T10:08:37.901Z,46.03
2023-05-16T10:11:07.396Z,46.73
2023-05-16T10:13:37.800Z,46.85
2023-05-16T10:16:11.455Z,46.10
2023-05-16T10:18:41.208Z,45.69
2023-05-16T10:21:12.137Z,45.35
2023-05-16T10:23:43.896Z,44.94
2023-05-16T10:26:14.741Z,44.91
2023-05-16T10:28:43.617Z,43.53
2023-05-16T10:31:12.654Z,43.69
2023-05-16T10:33:41.389Z,43.22
2023-05-16T10:36:11.112Z,44.60
2023-05-16T10:38:40.531Z,45.21
2023-05-16T10:41:10.678Z,43.13
2023-05-16T10:43:38.916Z,43.21
2023-05-16T10:46:09.747Z,44.01
2023-05-16T10:48:39.862Z,43.22
2023-05-16T10:51:35.273Z,42.09
2023-05-16T10:54:07.712Z,41.97
2023-05-16T10:56:37.767Z,41.64
2023-05-16T10:59:06.024Z,41.08
2023-05-16T11:01:34.960Z,42.32
2023-05-16T11:04:05.814Z,42.31
2023-05-16T11:06:34.907Z,42.47
2023-05-16T11:09:07.292Z,42.90
2023-05-16T11:11:48.957Z,42.82
2023-05-16T11:14:23.367Z,42.98
2023-05-16T11:16:52.714Z,42.33
2023-05-16T11:19:32.171Z,42.84
2023-05-16T11:22:07.614Z,42.75
2023-05-16T11:24:37.176Z,42.32
2023-05-16T11:27:07.650Z,42.80
2023-05-16T11:29:37.505Z,42.65
2023-05-16T11:32:06.680Z,41.70
2023-05-16T11:34:38.970Z,41.58
2023-05-16T11:37:07.655Z,41.57
2023-05-16T11:39:35.811Z,41.86
2023-05-16T11:42:03.843Z,42.16
2023-05-16T11:44:33.417Z,43.62
2023-05-16T11:47:02.564Z,43.85
2023-05-16T11:49:31.235Z,43.02
2023-05-16T11:51:59.367Z,43.72
2023-05-16T11:54:27.749Z,43.62
2023-05-16T11:56:56.162Z,43.87
2023-05-16T11:59:24.457Z,44.77
2023-05-16T12:01:53.910Z,44.22
2023-05-16T12:04:23.313Z,44.79
2023-05-16T12:07:03.151Z,45.25
2023-05-16T12:09:31.578Z,45.33
2023-05-16T12:11:59.765Z,44.96
2023-05-16T12:14:28.091Z,45.56
2023-05-16T12:16:58.216Z,44.79
2023-05-16T12:19:26.981Z,45.14
2023-05-16T12:21:55.520Z,45.11
2023-05-16T12:24:30.638Z,45.05
2023-05-16T12:26:59.072Z,45.53
2023-05-16T12:29:27.156Z,45.31
2023-05-16T12:31:55.331Z,44.40
2023-05-16T12:34:25.038Z,44.92
2023-05-16T12:36:54.613Z,45.10
2023-05-16T12:39:23.616Z,45.24
2023-05-16T12:41:51.775Z,45.64
2023-05-16T12:44:23.175Z,45.03
2023-05-16T12:46:52.853Z,45.77
2023-05-16T12:49:22.547Z,45.12
2023-05-16T12:51:53.366Z,45.95
2023-05-16T12:54:23.023Z,45.62
2023-05-16T12:56:51.545Z,46.05
2023-05-16T12:59:20.417Z,47.31
2023-05-16T13:01:48.788Z,47.12
2023-05-16T13:04:20.156Z,46.54
2023-05-16T13:06:59.333Z,46.79
2023-05-16T13:09:32.855Z,46.74
2023-05-16T13:12:01.589Z,46.33
2023-05-16T13:14:29.720Z,46.28
2023-05-16T13:16:57.858Z,46.68
2023-05-16T13:19:26.309Z,47.03
2023-05-16T13:21:54.476Z,47.23
2023-05-16T13:24:22.638Z,47.41
2023-05-16T13:26:52.197Z,48.11
2023-05-16T13:29:20.470Z,49.38
2023-05-16T13:31:48.591Z,50.11
2023-05-16T13:34:16.732Z,51.55
2023-05-16T13:39:18.162Z,53.30
2023-05-16T13:41:48.683Z,53.82
2023-05-16T13:44:18.675Z,54.19
2023-05-16T13:46:47.086Z,53.98
2023-05-16T13:49:15.234Z,54.39
2023-05-16T13:51:43.307Z,54.55
2023-05-16T13:54:11.355Z,54.62
2023-05-16T13:56:39.452Z,55.12
2023-05-16T13:59:07.897Z,56.04
2023-05-16T14:01:38.347Z,55.95
2023-05-16T14:04:06.895Z,55.28
2023-05-16T14:06:34.962Z,56.05
2023-05-16T14:09:03.409Z,56.21
2023-05-16T14:11:31.711Z,57.45
2023-05-16T14:13:59.816Z,56.17
2023-05-16T14:16:28.276Z,55.62
2023-05-16T14:18:58.116Z,56.35
2023-05-16T14:21:26.784Z,56.30
2023-05-16T14:23:54.982Z,56.12
2023-05-16T14:26:25.558Z,55.91
2023-05-16T14:28:53.781Z,55.99
2023-05-16T14:31:21.983Z,55.75
2023-05-16T14:33:50.539Z,55.69
2023-05-16T14:36:20.197Z,54.25
2023-05-16T14:38:49.589Z,53.87
2023-05-16T14:41:17.666Z,54.07
2023-05-16T14:43:46.178Z,54.50
2023-05-16T14:46:14.410Z,52.18
2023-05-16T14:48:42.518Z,52.48
2023-05-16T14:51:12.067Z,52.83
2023-05-16T14:53:41.649Z,53.25
2023-05-16T14:56:09.727Z,52.69
2023-05-16T14:58:37.853Z,53.51
2023-05-16T15:01:06.082Z,53.35
2023-05-16T15:03:46.929Z,53.44
2023-05-16T15:06:19.254Z,55.21
2023-05-16T15:08:48.745Z,54.33
2023-05-16T15:11:16.820Z,54.20
2023-05-16T15:13:44.906Z,54.41
2023-05-16T15:16:13.288Z,54.29
2023-05-16T15:18:41.818Z,54.51
2023-05-16T15:21:10.137Z,53.82
2023-05-16T15:23:38.352Z,53.86
2023-05-16T15:26:08.058Z,54.12
2023-05-16T15:28:36.192Z,54.03
2023-05-16T15:31:04.734Z,54.57
2023-05-16T15:33:32.824Z,54.67
2023-05-16T15:36:01.703Z,54.33
2023-05-16T15:38:29.851Z,54.89
2023-05-16T15:41:13.583Z,55.10
2023-05-16T15:43:47.360Z,56.43
2023-05-16T15:46:15.654Z,57.26
2023-05-16T15:48:45.034Z,58.06
2023-05-16T15:51:13.976Z,57.71
2023-05-16T15:53:42.078Z,58.24
2023-05-16T15:56:10.879Z,58.77
2023-05-16T15:58:38.920Z,58.88
2023-05-16T16:01:08.510Z,59.92
2023-05-16T16:03:36.770Z,62.37
2023-05-16T16:06:06.251Z,63.29
2023-05-16T16:08:34.343Z,63.32
2023-05-16T16:11:02.868Z,62.80
2023-05-16T16:13:31.143Z,62.20
2023-05-16T16:15:59.339Z,62.41
2023-05-16T16:18:28.898Z,61.72
2023-05-16T16:20:56.870Z,62.16
2023-05-16T16:23:24.992Z,62.11
2023-05-16T16:25:53.211Z,62.74
2023-05-16T16:28:22.586Z,63.13
2023-05-16T16:30:51.386Z,63.05
2023-05-16T16:33:19.750Z,63.46
2023-05-16T16:35:49.184Z,63.17
2023-05-16T16:38:17.664Z,63.01
2023-05-16T16:40:45.909Z,63.35
2023-05-16T16:43:14.877Z,63.60
2023-05-16T16:45:42.945Z,63.82
2023-05-16T16:48:11.661Z,63.99
2023-05-16T16:50:40.222Z,64.09
2023-05-16T16:53:09.972Z,64.69
2023-05-16T16:55:40.711Z,64.02
2023-05-16T16:58:09.190Z,65.42
2023-05-16T17:00:37.282Z,65.04
2023-05-16T17:03:05.555Z,64.77
2023-05-16T17:05:33.831Z,65.27
2023-05-16T17:08:02.018Z,64.77
2023-05-16T17:10:31.804Z,64.34
2023-05-16T17:13:07.115Z,64.84
2023-05-16T17:15:35.230Z,65.29
2023-05-16T17:18:04.742Z,65.96
2023-05-16T17:20:32.839Z,66.57
2023-05-16T17:23:01.134Z,66.53
2023-05-16T17:25:29.950Z,66.76
2023-05-16T17:27:59.746Z,67.34
2023-05-16T17:30:27.967Z,67.21
2023-05-16T17:32:56.035Z,67.73
2023-05-16T17:35:24.161Z,69.05
2023-05-16T17:37:52.440Z,68.85
2023-05-16T17:40:20.814Z,69.59
2023-05-16T17:42:49.015Z,69.40
2023-05-16T17:45:19.287Z,70.27
2023-05-16T17:47:47.441Z,70.58
2023-05-16T17:50:15.809Z,71.70
2023-05-16T17:52:44.248Z,71.53
2023-05-16T17:55:12.648Z,71.30
2023-05-16T17:57:40.955Z,71.45
2023-05-16T18:00:10.482Z,71.80
2023-05-16T18:02:41.217Z,71.52
2023-05-16T18:05:10.393Z,71.61
2023-05-16T18:07:38.802Z,72.64
2023-05-16T18:10:07.928Z,72.49
2023-05-16T18:12:37.997Z,72.21
2023-05-16T18:15:07.084Z,72.45
2023-05-16T18:17:35.421Z,72.26
2023-05-16T18:20:12.639Z,72.67
2023-05-16T18:22:41.381Z,73.23
2023-05-16T18:25:11.505Z,73.06
2023-05-16T18:27:39.642Z,73.13
2023-05-16T18:30:09.011Z,73.60
2023-05-16T18:32:37.296Z,73.18
2023-05-16T18:35:07.762Z,74.01
2023-05-16T18:37:36.643Z,73.93
2023-05-16T18:40:05.840Z,73.83
2023-05-16T18:42:34.321Z,73.23
2023-05-16T18:45:03.503Z,74.40
2023-05-16T18:47:31.786Z,73.74
2023-05-16T18:49:59.973Z,74.80
2023-05-16T18:52:29.626Z,74.17
2023-05-16T18:54:58.773Z,74.12
2023-05-16T18:57:26.928Z,74.47
2023-05-16T18:59:56.571Z,74.63
2023-05-16T19:02:37.877Z,74.42
2023-05-16T19:05:10.713Z,74.92
2023-05-16T19:07:40.880Z,76.01
2023-05-16T19:10:10.113Z,77.64
2023-05-16T19:12:38.636Z,77.34
2023-05-16T19:15:08.092Z,78.38
2023-05-16T19:17:36.327Z,78.83
2023-05-16T19:20:05.098Z,78.94
2023-05-16T19:22:33.740Z,79.54
2023-05-16T19:25:03.293Z,80.77
2023-05-16T19:27:31.701Z,82.72
2023-05-16T19:29:59.782Z,81.71
2023-05-16T19:32:27.891Z,81.08
2023-05-16T19:34:56.710Z,82.33
2023-05-16T19:37:24.850Z,82.18
2023-05-16T19:39:52.897Z,83.73
2023-05-16T19:42:22.381Z,82.07
2023-05-16T19:44:50.510Z,81.60
2023-05-16T19:47:18.612Z,82.81
2023-05-16T19:49:46.740Z,87.03
2023-05-16T19:52:14.908Z,84.50
2023-05-16T19:54:42.933Z,83.61
2023-05-16T19:57:11.028Z,82.32
2023-05-16T19:59:40.534Z,82.68
2023-05-16T20:02:08.716Z,84.06
2023-05-16T20:04:36.748Z,83.59
2023-05-16T20:07:04.903Z,86.32
2023-05-16T20:09:33.105Z,86.86
2023-05-16T20:12:01.458Z,87.43
2023-05-16T20:14:29.597Z,87.45
2023-05-16T20:16:59.734Z,89.96
2023-05-16T20:19:29.117Z,92.71
2023-05-16T20:21:57.288Z,93.38
2023-05-16T20:24:25.485Z,92.02
2023-05-16T20:26:54.469Z,94.16
2023-05-16T20:29:22.509Z,93.35
2023-05-16T20:31:50.524Z,92.91
2023-05-16T20:34:19.983Z,91.91
2023-05-16T20:36:48.123Z,90.89
2023-05-16T20:39:16.198Z,93.12
2023-05-16T20:41:44.273Z,94.64
2023-05-16T20:44:12.387Z,94.82
2023-05-16T20:46:42.068Z,94.93
2023-05-16T20:49:10.168Z,96.43
2023-05-16T20:51:39.624Z,94.73
2023-05-16T20:54:07.825Z,92.93
2023-05-16T20:56:35.911Z,91.01
2023-05-16T20:59:03.980Z,89.55
2023-05-16T21:01:32.786Z,89.51
2023-05-16T21:04:01.772Z,90.94
2023-05-16T21:06:29.885Z,91.26
2023-05-16T21:08:59.388Z,91.11
2023-05-16T21:11:28.671Z,90.44
2023-05-16T21:13:56.688Z,88.71
2023-05-16T21:16:25.054Z,90.75
2023-05-16T21:18:53.468Z,91.95
2023-05-16T21:21:21.733Z,92.33
2023-05-16T21:23:49.927Z,91.08
2023-05-16T21:26:19.476Z,93.22
2023-05-16T21:28:55.002Z,95.30
2023-05-16T21:31:23.820Z,93.94
2023-05-16T21:33:52.735Z,90.92
2023-05-16T21:36:21.028Z,90.28
2023-05-16T21:38:49.065Z,89.27
2023-05-16T21:41:18.266Z,90.90
2023-05-16T21:43:47.759Z,92.37
2023-05-16T21:46:15.910Z,93.04
2023-05-16T21:48:44.051Z,96.16
2023-05-16T21:51:12.207Z,93.03
2023-05-16T21:53:40.268Z,94.24
2023-05-16T21:56:08.712Z,92.19
2023-05-16T21:58:36.849Z,93.21
2023-05-16T22:01:06.606Z,92.74
2023-05-16T22:03:34.943Z,93.41
2023-05-16T22:06:03.233Z,91.33
2023-05-16T22:08:31.380Z,90.31
2023-05-16T22:10:59.533Z,88.90
2023-05-16T22:13:27.611Z,89.48
2023-05-16T22:16:04.009Z,88.41
2023-05-16T22:18:34.741Z,87.34
2023-05-16T22:21:03.001Z,87.45
2023-05-16T22:23:31.095Z,88.70
2023-05-16T22:25:59.247Z,90.34
2023-05-16T22:28:27.366Z,91.97
2023-05-16T22:30:55.526Z,93.04
2023-05-16T22:33:24.191Z,92.23
2023-05-16T22:35:54.062Z,91.57
2023-05-16T22:38:22.312Z,90.03
2023-05-16T22:40:50.358Z,89.86
2023-05-16T22:43:18.483Z,91.39
2023-05-16T22:45:46.687Z,90.88
2023-05-16T22:48:14.822Z,95.41
2023-05-16T22:50:42.936Z,95.81
2023-05-16T22:53:12.410Z,94.49
2023-05-16T22:55:40.404Z,94.74
2023-05-16T22:58:08.452Z,93.21
2023-05-16T23:00:36.581Z,92.02
2023-05-16T23:03:04.769Z,91.49
2023-05-16T23:05:32.875Z,90.30
2023-05-16T23:08:00.900Z,91.46
2023-05-16T23:10:30.592Z,89.39
2023-05-16T23:12:58.742Z,89.70
2023-05-16T23:15:26.990Z,90.51
2023-05-16T23:17:55.636Z,90.56
2023-05-16T23:20:23.864Z,92.70
2023-05-16T23:22:51.866Z,91.98
2023-05-16T23:25:20.034Z,91.42
2023-05-16T23:27:49.438Z,91.51
2023-05-16T23:30:17.669Z,90.16
2023-05-16T23:32:45.761Z,93.78
2023-05-16T23:35:13.873Z,94.91
2023-05-16T23:37:41.962Z,94.83
2023-05-16T23:40:11.020Z,96.23
2023-05-16T23:42:40.853Z,95.78
2023-05-16T23:45:11.378Z,94.27
2023-05-16T23:47:39.802Z,95.69
2023-05-16T23:50:08.745Z,94.71
2023-05-16T23:52:36.943Z,96.00
2023-05-16T23:55:05.608Z,98.17
2023-05-16T23:57:33.800Z,96.74
